createdAt,value
2023-10-27T00:02:16.500Z,22.40
2023-10-27T00:04:43.317Z,24.30
2023-10-27T00:07:10.209Z,27.00
2023-10-27T00:09:38.697Z,25.92
2023-10-27T00:12:06.701Z,23.60
2023-10-27T00:14:34.438Z,25.80
2023-10-27T00:17:01.587Z,25.40
2023-10-27T00:19:31.692Z,25.95
2023-10-27T00:21:58.418Z,26.85
2023-10-27T00:24:25.687Z,27.50
2023-10-27T00:26:52.767Z,26.63
2023-10-27T00:29:19.509Z,26.58
2023-10-27T00:31:46.304Z,25.88
2023-10-27T00:34:14.188Z,25.48
2023-10-27T00:36:41.341Z,24.45
2023-10-27T00:39:08.076Z,21.52
2023-10-27T00:41:34.904Z,23.88
2023-10-27T00:44:01.896Z,20.90
2023-10-27T00:46:29.453Z,19.48
2023-10-27T00:48:56.455Z,19.80
2023-10-27T00:51:23.791Z,19.83
2023-10-27T00:53:52.546Z,20.20
2023-10-27T00:56:19.692Z,19.00
2023-10-27T00:58:47.141Z,18.33
2023-10-27T01:01:18.460Z,17.17
2023-10-27T01:03:50.930Z,17.67
2023-10-27T01:06:17.610Z,17.27
2023-10-27T01:08:44.538Z,16.65
2023-10-27T01:11:12.014Z,15.50
2023-10-27T01:13:38.938Z,15.05
2023-10-27T01:16:06.220Z,14.35
2023-10-27T01:18:33.089Z,14.98
2023-10-27T01:21:00.188Z,17.25
2023-10-27T01:23:27.026Z,15.85
2023-10-27T01:25:53.776Z,16.05
2023-10-27T01:28:20.502Z,16.05
2023-10-27T01:30:50.431Z,16.58
2023-10-27T01:33:17.359Z,16.58
2023-10-27T01:35:44.077Z,15.93
2023-10-27T01:38:11.159Z,18.15
2023-10-27T01:40:37.925Z,19.40
2023-10-27T01:43:04.738Z,19.42
2023-10-27T01:45:31.580Z,20.27
2023-10-27T01:47:58.333Z,21.50
2023-10-27T01:50:25.222Z,21.30
2023-10-27T01:52:51.981Z,22.70
2023-10-27T01:55:19.246Z,22.65
2023-10-27T01:57:46.765Z,21.52
2023-10-27T02:00:14.288Z,23.20
2023-10-27T02:02:41.506Z,23.67
2023-10-27T02:05:09.358Z,21.75
2023-10-27T02:07:36.616Z,20.88
2023-10-27T02:10:03.434Z,20.40
2023-10-27T02:12:30.431Z,19.58
2023-10-27T02:14:57.249Z,19.98
2023-10-27T02:17:24.970Z,19.77
2023-10-27T02:19:52.202Z,19.13
2023-10-27T02:22:18.988Z,20.30
2023-10-27T02:24:45.734Z,21.95
2023-10-27T02:27:12.680Z,23.42
2023-10-27T02:29:39.694Z,22.73
2023-10-27T02:32:06.616Z,23.52
2023-10-27T02:34:33.405Z,21.27
2023-10-27T02:37:00.254Z,21.10
2023-10-27T02:39:27.498Z,22.15
2023-10-27T02:41:54.676Z,21.95
2023-10-27T02:44:21.561Z,21.45
2023-10-27T02:46:48.585Z,21.35
2023-10-27T02:49:18.318Z,20.60
2023-10-27T02:54:55.670Z,19.23
2023-10-27T02:57:53.302Z,19.17
2023-10-27T03:04:18.319Z,20.10
2023-10-27T03:06:59.265Z,21.63
2023-10-27T03:09:27.238Z,23.35
2023-10-27T03:11:53.905Z,23.67
2023-10-27T03:14:20.730Z,24.77
2023-10-27T03:16:47.719Z,26.48
2023-10-27T03:19:14.722Z,27.00
2023-10-27T03:21:42.882Z,27.02
2023-10-27T03:24:09.911Z,24.88
2023-10-27T03:26:36.698Z,24.58
2023-10-27T03:29:03.989Z,24.02
2023-10-27T03:31:32.407Z,24.88
2023-10-27T03:34:00.691Z,23.27
2023-10-27T03:36:27.609Z,20.10
2023-10-27T03:38:54.321Z,22.02
2023-10-27T03:41:21.306Z,19.38
2023-10-27T03:43:48.438Z,20.33
2023-10-27T03:46:15.226Z,20.52
2023-10-27T03:48:42.133Z,19.55
2023-10-27T03:51:09.559Z,20.23
2023-10-27T03:53:36.333Z,21.83
2023-10-27T03:56:03.390Z,19.83
2023-10-27T03:58:44.495Z,24.15
2023-10-27T04:01:14.235Z,25.30
2023-10-27T04:03:41.320Z,25.40
2023-10-27T04:06:08.766Z,25.40
2023-10-27T04:08:35.767Z,27.70
2023-10-27T04:11:02.521Z,31.25
2023-10-27T04:13:29.424Z,30.77
2023-10-27T04:15:56.181Z,30.25
2023-10-27T04:18:22.935Z,30.63
2023-10-27T04:20:50.616Z,29.85
2023-10-27T04:23:17.404Z,29.27
2023-10-27T04:25:44.138Z,28.83
2023-10-27T04:28:12.197Z,27.80
2023-10-27T04:30:39.234Z,29.35
2023-10-27T04:33:07.285Z,30.27
2023-10-27T04:35:34.514Z,28.83
2023-10-27T04:38:01.501Z,30.13
2023-10-27T04:40:32.836Z,27.98
2023-10-27T04:43:01.317Z,25.23
2023-10-27T04:45:28.359Z,23.67
2023-10-27T04:47:55.810Z,22.75
2023-10-27T04:50:23.439Z,22.95
2023-10-27T04:52:50.121Z,20.83
2023-10-27T04:55:17.116Z,21.25
2023-10-27T04:57:44.140Z,19.42
2023-10-27T05:00:12.586Z,18.83
2023-10-27T05:02:39.341Z,18.60
2023-10-27T05:05:06.323Z,18.48
2023-10-27T05:07:33.190Z,20.08
2023-10-27T05:10:00.003Z,22.27
2023-10-27T05:12:26.998Z,20.40
2023-10-27T05:14:53.736Z,21.92
2023-10-27T05:17:20.537Z,22.85
2023-10-27T05:19:49.374Z,23.52
2023-10-27T05:22:42.005Z,23.27
2023-10-27T05:25:09.178Z,24.08
2023-10-27T05:27:35.957Z,23.38
2023-10-27T05:30:03.660Z,23.23
2023-10-27T05:32:34.496Z,22.15
2023-10-27T05:35:01.435Z,23.65
2023-10-27T05:37:28.315Z,22.67
2023-10-27T05:39:55.116Z,21.52
2023-10-27T05:42:21.852Z,20.75
2023-10-27T05:44:48.817Z,21.90
2023-10-27T05:47:17.070Z,20.02
2023-10-27T05:49:43.939Z,21.15
2023-10-27T05:52:10.895Z,20.27
2023-10-27T05:54:37.906Z,21.27
2023-10-27T05:57:05.300Z,21.85
2023-10-27T05:59:32.256Z,21.85
2023-10-27T06:02:08.715Z,21.75
2023-10-27T06:04:41.746Z,22.65
2023-10-27T06:07:08.598Z,24.02
2023-10-27T06:09:36.949Z,21.95
2023-10-27T06:12:03.995Z,24.65
2023-10-27T06:14:30.807Z,22.38
2023-10-27T06:16:57.701Z,22.52
2023-10-27T06:19:26.102Z,21.30
2023-10-27T06:21:54.734Z,23.70
2023-10-27T06:24:21.730Z,22.35
2023-10-27T06:26:50.014Z,21.27
2023-10-27T06:29:17.071Z,21.92
2023-10-27T06:31:46.784Z,18.38
2023-10-27T06:34:13.843Z,17.05
2023-10-27T06:36:40.667Z,17.00
2023-10-27T06:39:07.379Z,16.25
2023-10-27T06:41:34.279Z,14.18
2023-10-27T06:44:02.613Z,13.55
2023-10-27T06:46:29.529Z,14.70
2023-10-27T06:48:56.939Z,13.98
2023-10-27T06:51:23.966Z,14.35
2023-10-27T06:53:51.290Z,14.35
2023-10-27T06:56:18.030Z,12.20
2023-10-27T06:58:44.769Z,14.38
2023-10-27T07:01:11.784Z,13.65
2023-10-27T07:03:38.943Z,14.20
2023-10-27T07:06:06.183Z,14.23
2023-10-27T07:08:33.271Z,14.38
2023-10-27T07:11:00.431Z,15.38
2023-10-27T07:13:28.335Z,15.80
2023-10-27T07:15:55.868Z,15.18
2023-10-27T07:18:22.847Z,14.93
2023-10-27T07:20:49.830Z,15.38
2023-10-27T07:23:19.883Z,16.08
2023-10-27T07:25:46.906Z,16.40
2023-10-27T07:28:14.239Z,18.10
2023-10-27T07:30:41.035Z,17.00
2023-10-27T07:33:08.028Z,16.95
2023-10-27T07:35:34.844Z,16.52
2023-10-27T07:38:01.855Z,15.55
2023-10-27T07:40:28.710Z,16.45
2023-10-27T07:42:58.518Z,15.88
2023-10-27T07:45:26.503Z,15.52
2023-10-27T07:47:53.767Z,14.77
2023-10-27T07:50:21.286Z,15.13
2023-10-27T07:52:48.211Z,14.65
2023-10-27T07:55:15.172Z,15.43
2023-10-27T07:57:42.152Z,14.98
2023-10-27T08:00:12.262Z,15.95
2023-10-27T08:02:39.438Z,14.35
2023-10-27T08:05:07.699Z,15.00
2023-10-27T08:07:36.766Z,14.90
2023-10-27T08:10:08.254Z,14.75
2023-10-27T08:12:35.947Z,15.30
2023-10-27T08:15:06.497Z,13.85
2023-10-27T08:17:37.361Z,14.00
2023-10-27T08:20:05.254Z,15.05
2023-10-27T08:22:34.152Z,15.45
2023-10-27T08:25:01.234Z,14.88
2023-10-27T08:27:27.997Z,13.40
2023-10-27T08:29:55.779Z,14.57
2023-10-27T08:32:23.057Z,14.32
2023-10-27T08:34:50.292Z,15.45
2023-10-27T08:37:17.793Z,15.57
2023-10-27T08:39:44.931Z,15.50
2023-10-27T08:42:12.113Z,14.98
2023-10-27T08:44:41.553Z,14.90
2023-10-27T08:47:08.570Z,15.60
2023-10-27T08:49:35.342Z,14.43
2023-10-27T08:52:03.905Z,15.00
2023-10-27T08:54:32.384Z,15.23
2023-10-27T08:56:59.535Z,14.18
2023-10-27T08:59:26.494Z,13.98
2023-10-27T09:01:55.001Z,14.90
2023-10-27T09:04:25.237Z,13.15
2023-10-27T09:06:52.375Z,13.18
2023-10-27T09:09:20.073Z,13.30
2023-10-27T09:11:48.805Z,13.98
2023-10-27T09:14:44.762Z,15.20
2023-10-27T09:17:12.217Z,14.95
2023-10-27T09:19:40.369Z,15.60
2023-10-27T09:22:17.578Z,15.05
2023-10-27T09:24:44.748Z,13.65
2023-10-27T09:27:15.118Z,14.05
2023-10-27T09:29:43.000Z,14.80
2023-10-27T09:32:26.661Z,15.65
2023-10-27T09:35:10.495Z,13.98
2023-10-27T09:37:42.392Z,14.75
2023-10-27T09:40:10.720Z,15.27
2023-10-27T09:42:38.406Z,17.42
2023-10-27T09:45:12.955Z,15.65
2023-10-27T09:47:42.914Z,16.65
2023-10-27T09:50:34.334Z,16.38
2023-10-27T09:53:02.276Z,16.52
2023-10-27T09:55:30.157Z,14.90
2023-10-27T09:57:57.508Z,15.82
2023-10-27T10:00:28.665Z,15.10
2023-10-27T10:02:57.678Z,17.50
2023-10-27T10:05:24.917Z,16.48
2023-10-27T10:07:56.326Z,16.38
2023-10-27T10:10:30.174Z,16.48
2023-10-27T10:13:13.235Z,16.10
2023-10-27T10:15:44.957Z,16.08
2023-10-27T10:18:42.539Z,16.73
2023-10-27T10:21:09.538Z,15.90
2023-10-27T10:23:38.965Z,16.95
2023-10-27T10:26:06.171Z,17.42
2023-10-27T10:28:34.531Z,16.58
2023-10-27T10:31:11.225Z,17.45
2023-10-27T10:33:42.283Z,15.93
2023-10-27T10:36:24.660Z,17.15
2023-10-27T10:38:51.325Z,16.98
2023-10-27T10:41:19.772Z,17.88
2023-10-27T10:44:14.217Z,18.15
2023-10-27T10:46:41.726Z,17.50
2023-10-27T10:49:10.776Z,16.35
2023-10-27T10:51:38.181Z,18.13
2023-10-27T10:54:12.611Z,16.65
2023-10-27T10:56:39.568Z,17.88
2023-10-27T10:59:06.304Z,17.80
2023-10-27T11:01:33.093Z,18.00
2023-10-27T11:04:00.040Z,18.52
2023-10-27T11:06:30.495Z,17.35
2023-10-27T11:08:57.316Z,16.83
2023-10-27T11:11:34.859Z,17.20
2023-10-27T11:14:09.227Z,17.40
2023-10-27T11:16:37.254Z,18.13
2023-10-27T11:19:04.156Z,16.90
2023-10-27T11:21:35.718Z,15.02
2023-10-27T11:24:12.951Z,15.48
2023-10-27T11:26:43.257Z,15.70
2023-10-27T11:29:10.391Z,15.07
2023-10-27T11:31:41.162Z,13.05
2023-10-27T11:34:13.128Z,14.70
2023-10-27T11:36:44.504Z,14.90
2023-10-27T11:39:22.072Z,14.32
2023-10-27T11:41:55.903Z,14.00
2023-10-27T11:44:24.718Z,16.33
2023-10-27T11:46:55.791Z,15.60
2023-10-27T11:49:23.450Z,16.17
2023-10-27T11:51:55.519Z,15.68
2023-10-27T11:54:24.245Z,14.20
2023-10-27T11:56:51.201Z,14.13
2023-10-27T11:59:18.964Z,13.85
2023-10-27T12:01:46.756Z,14.77
2023-10-27T12:04:13.804Z,13.18
2023-10-27T12:06:42.761Z,12.88
2023-10-27T12:09:10.603Z,14.93
2023-10-27T12:11:42.305Z,13.88
2023-10-27T12:14:11.560Z,12.98
2023-10-27T12:16:38.436Z,13.00
2023-10-27T12:19:05.368Z,12.38
2023-10-27T12:21:34.386Z,13.15
2023-10-27T12:24:01.514Z,12.30
2023-10-27T12:26:28.892Z,13.48
2023-10-27T12:28:55.996Z,13.65
2023-10-27T12:31:22.928Z,13.23
2023-10-27T12:33:52.844Z,13.30
2023-10-27T12:36:22.359Z,12.38
2023-10-27T12:38:49.250Z,11.15
2023-10-27T12:41:16.009Z,12.23
2023-10-27T12:43:42.853Z,12.68
2023-10-27T12:46:10.297Z,11.82
2023-10-27T12:48:37.130Z,10.80
2023-10-27T12:51:05.472Z,11.85
2023-10-27T12:53:32.313Z,11.25
2023-10-27T12:55:59.237Z,10.23
2023-10-27T12:58:26.761Z,10.60
2023-10-27T13:00:53.486Z,9.95
2023-10-27T13:03:20.294Z,9.57
2023-10-27T13:05:48.024Z,9.63
2023-10-27T13:08:15.753Z,10.60
2023-10-27T13:10:43.134Z,10.13
2023-10-27T13:13:11.132Z,8.75
2023-10-27T13:15:38.488Z,10.32
2023-10-27T13:18:06.167Z,9.55
2023-10-27T13:20:33.948Z,9.95
2023-10-27T13:23:01.258Z,9.43
2023-10-27T13:25:28.057Z,8.93
2023-10-27T13:27:54.872Z,10.50
2023-10-27T13:30:24.018Z,10.05
2023-10-27T13:32:53.604Z,9.15
2023-10-27T13:35:24.006Z,9.75
2023-10-27T13:37:54.377Z,9.60
2023-10-27T13:40:21.632Z,9.52
2023-10-27T13:42:48.542Z,8.73
2023-10-27T13:45:16.567Z,9.63
2023-10-27T13:47:43.594Z,9.30
2023-10-27T13:50:12.328Z,9.20
2023-10-27T13:52:40.088Z,9.73
2023-10-27T13:55:09.754Z,8.80
2023-10-27T13:57:36.885Z,9.65
2023-10-27T14:00:04.725Z,9.70
2023-10-27T14:02:39.896Z,10.07
2023-10-27T14:05:07.086Z,9.05
2023-10-27T14:07:34.178Z,9.38
2023-10-27T14:10:01.173Z,9.70
2023-10-27T14:12:28.321Z,9.60
2023-10-27T14:14:55.141Z,10.10
2023-10-27T14:17:22.005Z,8.55
2023-10-27T14:19:52.407Z,8.38
2023-10-27T14:22:19.190Z,9.07
2023-10-27T14:24:47.593Z,8.45
2023-10-27T14:27:16.392Z,9.07
2023-10-27T14:29:44.262Z,9.20
2023-10-27T14:32:11.041Z,9.40
2023-10-27T14:34:39.236Z,9.10
2023-10-27T14:37:06.213Z,9.02
2023-10-27T14:39:34.426Z,9.23
2023-10-27T14:42:02.661Z,9.82
2023-10-27T14:44:31.606Z,9.35
2023-10-27T14:46:58.527Z,9.52
2023-10-27T14:49:26.584Z,8.50
2023-10-27T14:51:53.352Z,9.55
2023-10-27T14:54:20.148Z,10.32
2023-10-27T14:56:46.879Z,9.43
2023-10-27T14:59:14.058Z,10.13
2023-10-27T15:01:40.917Z,8.30
2023-10-27T15:04:07.745Z,9.88
2023-10-27T15:06:34.475Z,9.98
2023-10-27T15:09:01.193Z,8.95
2023-10-27T15:11:28.174Z,8.70
2023-10-27T15:13:55.370Z,9.10
2023-10-27T15:16:22.238Z,10.15
2023-10-27T15:18:49.528Z,8.32
2023-10-27T15:21:18.540Z,8.77
2023-10-27T15:23:49.604Z,8.85
2023-10-27T15:26:16.971Z,10.30
2023-10-27T15:28:45.084Z,10.05
2023-10-27T15:31:12.995Z,10.02
2023-10-27T15:33:40.210Z,8.55
2023-10-27T15:36:09.547Z,8.70
2023-10-27T15:38:37.792Z,9.07
2023-10-27T15:41:05.668Z,9.40
2023-10-27T15:43:34.443Z,9.73
2023-10-27T15:46:04.277Z,10.27
2023-10-27T15:48:32.600Z,9.82
2023-10-27T15:51:00.656Z,10.45
2023-10-27T15:53:27.821Z,9.55
2023-10-27T15:55:55.043Z,10.35
2023-10-27T15:58:27.187Z,10.07
2023-10-27T16:00:55.389Z,9.93
2023-10-27T16:03:23.299Z,9.80
2023-10-27T16:05:50.671Z,9.85
2023-10-27T16:08:17.776Z,9.63
2023-10-27T16:10:44.549Z,9.15
2023-10-27T16:13:11.298Z,9.13
2023-10-27T16:15:38.658Z,9.07
2023-10-27T16:18:06.464Z,9.85
2023-10-27T16:20:33.404Z,10.77
2023-10-27T16:23:01.236Z,10.05
2023-10-27T16:25:27.995Z,9.23
2023-10-27T16:27:55.159Z,9.20
2023-10-27T16:30:22.785Z,9.57
2023-10-27T16:32:49.996Z,9.40
2023-10-27T16:35:17.996Z,13.68
2023-10-27T16:37:46.010Z,11.73
2023-10-27T16:40:13.609Z,12.80
2023-10-27T16:43:34.360Z,13.80
2023-10-27T16:46:05.496Z,10.52
2023-10-27T16:51:21.133Z,8.70
2023-10-27T16:53:49.117Z,9.73
2023-10-27T16:56:18.972Z,9.38
2023-10-27T16:58:45.833Z,9.00
2023-10-27T17:01:13.380Z,10.27
2023-10-27T17:03:40.563Z,9.20
2023-10-27T17:06:07.879Z,9.07
2023-10-27T17:08:34.669Z,11.63
2023-10-27T17:11:01.824Z,14.60
2023-10-27T17:13:29.686Z,12.05
2023-10-27T17:16:05.576Z,11.57
2023-10-27T17:18:33.604Z,9.90
2023-10-27T17:21:14.671Z,10.25
2023-10-27T17:23:43.348Z,10.27
2023-10-27T17:26:10.603Z,9.32
2023-10-27T17:28:39.651Z,10.27
2023-10-27T17:31:06.431Z,9.07
2023-10-27T17:33:33.285Z,9.75
2023-10-27T17:36:10.111Z,11.07
2023-10-27T17:38:37.747Z,10.25
2023-10-27T17:41:04.781Z,10.23
2023-10-27T17:43:31.602Z,10.20
2023-10-27T17:45:58.472Z,10.23
2023-10-27T17:48:27.232Z,9.90
2023-10-27T17:50:59.251Z,10.50
2023-10-27T17:53:27.230Z,10.25
2023-10-27T17:55:55.083Z,11.02
2023-10-27T17:58:22.832Z,9.98
2023-10-27T18:00:49.999Z,10.23
2023-10-27T18:03:18.603Z,10.68
2023-10-27T18:05:46.009Z,10.90
2023-10-27T18:08:13.066Z,9.95
2023-10-27T18:10:46.086Z,11.80
2023-10-27T18:13:16.888Z,9.70
2023-10-27T18:15:47.497Z,11.15
2023-10-27T18:18:16.586Z,11.25
2023-10-27T18:20:43.954Z,11.23
2023-10-27T18:23:11.260Z,10.57
2023-10-27T18:25:39.845Z,10.32
2023-10-27T18:28:07.991Z,10.90
2023-10-27T18:30:36.042Z,10.70
2023-10-27T18:33:07.495Z,11.40
2023-10-27T18:35:34.937Z,11.73
2023-10-27T18:38:03.898Z,11.05
2023-10-27T18:40:31.325Z,10.55
2023-10-27T18:42:59.635Z,11.32
2023-10-27T18:45:26.709Z,11.23
2023-10-27T18:47:58.427Z,12.15
2023-10-27T18:50:26.838Z,12.32
2023-10-27T18:52:53.527Z,11.20
2023-10-27T18:55:24.602Z,11.30
2023-10-27T18:57:53.176Z,10.65
2023-10-27T19:00:23.437Z,10.88
2023-10-27T19:02:52.392Z,11.43
2023-10-27T19:05:19.654Z,10.70
2023-10-27T19:07:47.762Z,11.77
2023-10-27T19:10:14.792Z,11.30
2023-10-27T19:12:44.400Z,10.77
2023-10-27T19:15:18.006Z,11.27
2023-10-27T19:17:45.736Z,11.48
2023-10-27T19:20:12.818Z,11.70
2023-10-27T19:22:40.698Z,11.55
2023-10-27T19:25:08.996Z,10.68
2023-10-27T19:27:36.798Z,11.52
2023-10-27T19:30:07.005Z,11.18
2023-10-27T19:32:35.378Z,10.50
2023-10-27T19:35:02.336Z,10.40
2023-10-27T19:37:32.065Z,10.73
2023-10-27T19:39:58.968Z,11.95
2023-10-27T19:42:25.953Z,11.50
2023-10-27T19:44:52.811Z,11.23
2023-10-27T19:47:20.591Z,10.75
2023-10-27T19:49:47.634Z,11.93
2023-10-27T19:52:14.686Z,11.00
2023-10-27T19:54:41.398Z,11.45
2023-10-27T19:57:08.529Z,11.15
2023-10-27T19:59:35.672Z,12.00
2023-10-27T20:02:02.717Z,10.45
2023-10-27T20:04:29.569Z,11.48
2023-10-27T20:06:56.351Z,10.38
2023-10-27T20:09:23.338Z,10.52
2023-10-27T20:11:51.662Z,11.82
2023-10-27T20:14:18.897Z,10.45
2023-10-27T20:16:45.658Z,11.38
2023-10-27T20:19:12.874Z,10.57
2023-10-27T20:21:39.650Z,11.30
2023-10-27T20:24:06.707Z,12.13
2023-10-27T20:26:33.512Z,11.25
2023-10-27T20:29:01.292Z,12.02
2023-10-27T20:31:29.207Z,11.50
2023-10-27T20:33:57.311Z,10.13
2023-10-27T20:36:26.606Z,10.43
2023-10-27T20:38:53.631Z,10.77
2023-10-27T20:41:20.334Z,9.77
2023-10-27T20:43:47.181Z,10.02
2023-10-27T20:46:13.933Z,9.98
2023-10-27T20:48:42.758Z,10.60
2023-10-27T20:51:10.277Z,9.35
2023-10-27T20:53:37.093Z,9.77
2023-10-27T20:56:05.349Z,10.40
2023-10-27T20:58:32.317Z,10.52
2023-10-27T21:01:06.574Z,10.10
2023-10-27T21:03:34.214Z,9.80
2023-10-27T21:06:06.319Z,10.10
2023-10-27T21:08:33.955Z,10.02
2023-10-27T21:11:01.132Z,10.27
2023-10-27T21:13:28.028Z,9.85
2023-10-27T21:15:55.579Z,10.73
2023-10-27T21:18:22.276Z,9.80
2023-10-27T21:20:48.985Z,10.02
2023-10-27T21:23:15.784Z,10.00
2023-10-27T21:25:42.483Z,8.82
2023-10-27T21:28:09.421Z,10.15
2023-10-27T21:30:36.415Z,10.65
2023-10-27T21:33:03.295Z,10.27
2023-10-27T21:35:30.038Z,10.13
2023-10-27T21:37:57.939Z,9.65
2023-10-27T21:40:24.818Z,9.95
2023-10-27T21:42:51.472Z,10.07
2023-10-27T21:45:18.509Z,10.98
2023-10-27T21:47:45.611Z,10.85
2023-10-27T21:50:12.451Z,11.30
2023-10-27T21:52:39.341Z,10.75
2023-10-27T21:55:06.798Z,10.38
2023-10-27T21:57:33.617Z,10.70
2023-10-27T22:00:00.385Z,11.88
2023-10-27T22:02:27.082Z,11.60
2023-10-27T22:04:53.975Z,12.30
2023-10-27T22:07:20.834Z,11.57
2023-10-27T22:09:47.840Z,11.90
2023-10-27T22:12:17.102Z,12.40
2023-10-27T22:14:45.384Z,12.13
2023-10-27T22:17:12.452Z,13.45
2023-10-27T22:19:39.319Z,12.90
2023-10-27T22:22:06.105Z,12.75
2023-10-27T22:24:32.865Z,11.73
2023-10-27T22:26:59.716Z,12.50
2023-10-27T22:29:26.445Z,12.57
2023-10-27T22:31:53.157Z,12.50
2023-10-27T22:34:19.930Z,12.82
2023-10-27T22:36:46.684Z,11.75
2023-10-27T22:39:13.487Z,11.88
2023-10-27T22:41:40.209Z,12.45
2023-10-27T22:44:07.116Z,13.07
2023-10-27T22:46:34.259Z,13.30
2023-10-27T22:49:01.196Z,13.18
2023-10-27T22:51:28.027Z,13.38
2023-10-27T22:53:54.951Z,14.20
2023-10-27T22:56:21.641Z,14.27
2023-10-27T22:58:48.653Z,13.50
2023-10-27T23:01:15.456Z,14.88
2023-10-27T23:03:42.361Z,14.63
2023-10-27T23:06:11.099Z,14.57
2023-10-27T23:08:38.956Z,14.32
2023-10-27T23:11:10.221Z,15.30
2023-10-27T23:13:38.445Z,13.98
2023-10-27T23:16:08.425Z,16.05
2023-10-27T23:18:38.911Z,14.27
2023-10-27T23:21:06.736Z,14.50
2023-10-27T23:23:33.579Z,13.77
2023-10-27T23:26:00.615Z,14.05
2023-10-27T23:28:27.327Z,15.10
2023-10-27T23:30:59.888Z,14.90
2023-10-27T23:33:26.764Z,14.38
2023-10-27T23:36:00.161Z,15.65
2023-10-27T23:38:28.012Z,13.88
2023-10-27T23:40:56.703Z,14.40
2023-10-27T23:43:23.533Z,15.32
2023-10-27T23:45:50.345Z,16.10
2023-10-27T23:48:17.168Z,15.32
2023-10-27T23:50:43.892Z,15.93
2023-10-27T23:53:10.771Z,14.77
2023-10-27T23:55:38.675Z,15.90
2023-10-27T23:58:05.467Z,15.30
